Datos meteorológicos de aviación METAR     LIEE Cagliari Elmas Airport
Temperatura
9°C Temperatura
6°C Punto de rocío
82% Humedad



Viento
10 KM/H
6 MPH
3 M/S
5 NUDO



20°
NNE
Condiciones actuales

Mayormente nublado Mayormente nublado
Presión 1027.92 (hPa) - 30.35 (inHg)
Visibilidad 6.2 (milla) - 10 (km)
Aeropuerto
Código de aeropuerto LIEE

localidad: Cagliari Elmas Airport
Distancia: 14 (km)

Metar:
LIEE 280920Z 02005KT 9999 BKN040 09/06 Q1028

Hora: 28-01-2022 10:20 CET